Terminal Aerodrome Forecast
Issued by NWS Sterling, VA

Current Version | Previous Version | Graphics & Text | Print | Product List | Glossary On
Versions: 1 2 3 4 5 6 7 8 9 10 11 12 13 14 15 16 17 18 19 20 21 22 23 24 25
885
FTUS41 KLWX 281740
TAFDCA
TAF
KDCA 281740Z 2818/2918 17009KT P6SM FEW250
     FM281900 17011KT P6SM SCT040
     FM290100 16004KT P6SM SCT250=

USA.gov is the U.S. government's official web portal to all federal, state and local government web resources and services.